Time;durP1;ratioP1;P1;durP2;ratioP2;P2;SDS_P1;SDS_P2;PMS_P1;PMS_P2;Temp;Humidity;BMP_temperature;BMP_pressure;BME280_temperature;BME280_humidity;BME280_pressure;Samples;Min_cycle;Max_cycle;Signal;HPM_P1;HPM_P2
2023/08/13 00:00:32;;;;;;;22.15;17.35;;;14.90;95.10;;;;;;5017398;28;20174;-89
2023/08/13 00:02:58;;;;;;;30.02;18.55;;;14.90;95.10;;;;;;4999405;28;20236;-90
2023/08/13 00:05:23;;;;;;;21.70;17.20;;;14.90;95.00;;;;;;4999045;28;20201;-90
2023/08/13 00:07:49;;;;;;;20.35;17.13;;;14.80;94.90;;;;;;5016702;28;20288;-90
2023/08/13 00:10:15;;;;;;;20.90;16.75;;;14.90;95.00;;;;;;5017566;28;20173;-89
2023/08/13 00:12:40;;;;;;;21.25;17.35;;;15.00;95.00;;;;;;5016903;28;20173;-89
2023/08/13 00:15:06;;;;;;;28.17;18.38;;;14.90;95.00;;;;;;5016807;28;20193;-90
2023/08/13 00:17:34;;;;;;;34.22;29.67;;;14.90;94.90;;;;;;5016693;28;20173;-89
2023/08/13 00:19:59;;;;;;;34.38;31.63;;;14.90;94.90;;;;;;5016607;28;20268;-89
2023/08/13 00:22:25;;;;;;;21.13;18.80;;;14.90;94.90;;;;;;5016570;28;20201;-89
2023/08/13 00:24:55;;;;;;;27.48;20.27;;;14.90;94.90;;;;;;5016273;28;20201;-89
2023/08/13 00:27:20;;;;;;;24.95;19.35;;;14.90;94.90;;;;;;5017138;28;20192;-90
2023/08/13 00:29:46;;;;;;;34.88;31.33;;;14.90;94.90;;;;;;5016860;28;20712;-91
2023/08/13 00:32:12;;;;;;;36.80;33.38;;;14.80;94.90;;;;;;5016550;28;20192;-90
2023/08/13 00:34:37;;;;;;;28.55;22.92;;;14.80;94.90;;;;;;5015395;28;20295;-90
2023/08/13 00:37:03;;;;;;;28.35;22.15;;;14.80;94.90;;;;;;5015486;28;20169;-91
2023/08/13 00:39:28;;;;;;;22.92;20.83;;;14.80;94.90;;;;;;4995682;28;20177;-89
2023/08/13 00:41:54;;;;;;;23.60;21.08;;;14.90;95.00;;;;;;5014133;28;20215;-91
2023/08/13 00:44:20;;;;;;;23.10;19.98;;;14.80;95.00;;;;;;5013909;28;20248;-90
2023/08/13 00:46:46;;;;;;;27.52;20.80;;;14.80;95.00;;;;;;4996559;28;20178;-91
2023/08/13 00:49:13;;;;;;;30.75;20.88;;;14.80;95.00;;;;;;5014228;28;20598;-91
2023/08/13 00:51:38;;;;;;;23.08;20.67;;;14.70;95.00;;;;;;5014133;28;20184;-91
2023/08/13 00:54:07;;;;;;;26.52;20.70;;;14.80;95.00;;;;;;4998044;28;20202;-90
2023/08/13 00:56:33;;;;;;;23.52;20.70;;;14.80;95.00;;;;;;5014804;28;20239;-90
2023/08/13 00:58:58;;;;;;;23.90;20.65;;;14.70;95.00;;;;;;5014986;28;20178;-90
2023/08/13 01:01:24;;;;;;;23.08;20.77;;;14.70;95.10;;;;;;5015206;28;20668;-89
2023/08/13 01:03:50;;;;;;;22.95;19.48;;;14.70;95.00;;;;;;5014856;28;20548;-90
2023/08/13 01:06:59;;;;;;;23.40;21.00;;;14.50;95.00;;;;;;5015295;28;20170;-90
2023/08/13 01:09:42;;;;;;;27.75;20.02;;;14.50;95.00;;;;;;5014776;28;20192;-90
2023/08/13 01:12:23;;;;;;;27.42;19.90;;;14.40;95.00;;;;;;5015299;28;20185;-91
2023/08/13 01:15:02;;;;;;;24.48;21.30;;;14.30;95.00;;;;;;5014801;28;20189;-90
2023/08/13 01:17:29;;;;;;;32.15;20.65;;;14.30;95.00;;;;;;5015154;28;20530;-90
2023/08/13 01:19:55;;;;;;;22.17;19.45;;;14.20;95.10;;;;;;5014980;28;20169;-90
2023/08/13 01:22:27;;;;;;;23.02;19.63;;;14.20;95.10;;;;;;5014878;28;20189;-90
2023/08/13 01:24:54;;;;;;;22.65;19.27;;;14.20;95.20;;;;;;4997465;28;20193;-90
2023/08/13 01:27:37;;;;;;;25.80;20.83;;;14.20;95.20;;;;;;5014584;28;20641;-90
2023/08/13 01:30:10;;;;;;;30.13;19.13;;;14.20;95.20;;;;;;5014950;28;20154;-90
2023/08/13 01:32:54;;;;;;;23.27;18.70;;;14.20;95.30;;;;;;5014700;28;20649;-90
2023/08/13 01:35:21;;;;;;;29.58;18.65;;;14.30;95.30;;;;;;5014802;28;20583;-90
2023/08/13 01:37:48;;;;;;;26.95;19.77;;;14.30;95.30;;;;;;5014451;28;20170;-90
2023/08/13 01:40:14;;;;;;;23.10;18.75;;;14.30;95.30;;;;;;5014851;28;20174;-90
2023/08/13 01:42:40;;;;;;;21.23;18.48;;;14.20;95.30;;;;;;5014955;28;20169;-90
2023/08/13 01:45:06;;;;;;;27.38;19.30;;;14.30;95.30;;;;;;5014788;28;20193;-90
2023/08/13 01:47:31;;;;;;;20.08;17.40;;;14.30;95.30;;;;;;4997112;28;20739;-90
2023/08/13 01:49:57;;;;;;;20.98;18.63;;;14.30;95.30;;;;;;5015708;28;20172;-90
2023/08/13 01:52:22;;;;;;;27.08;17.38;;;14.30;95.30;;;;;;5017670;28;20184;-90
2023/08/13 01:54:48;;;;;;;25.15;17.90;;;14.40;95.40;;;;;;5017952;28;20189;-90
2023/08/13 01:57:13;;;;;;;24.52;17.85;;;14.50;95.40;;;;;;5000602;28;20240;-90
2023/08/13 01:59:39;;;;;;;22.00;17.40;;;14.60;95.40;;;;;;5017787;28;20272;-90
2023/08/13 02:02:04;;;;;;;22.00;18.23;;;14.60;95.40;;;;;;5017591;28;20173;-90
2023/08/13 02:04:30;;;;;;;21.30;18.90;;;14.60;95.40;;;;;;5017659;28;20207;-91
2023/08/13 02:06:55;;;;;;;25.73;18.35;;;14.70;95.40;;;;;;5017440;28;20184;-90
2023/08/13 02:09:21;;;;;;;30.02;19.00;;;14.70;95.30;;;;;;5017603;28;20206;-90
2023/08/13 02:11:46;;;;;;;25.13;18.52;;;14.70;95.30;;;;;;5000434;28;20207;-90
2023/08/13 02:14:12;;;;;;;36.65;18.42;;;14.60;95.30;;;;;;5000262;28;20201;-90
2023/08/13 02:16:38;;;;;;;24.60;18.35;;;14.60;95.20;;;;;;5000070;28;20181;-90
2023/08/13 02:19:03;;;;;;;28.88;19.30;;;14.60;95.20;;;;;;5017606;28;20200;-90
2023/08/13 02:21:29;;;;;;;34.53;18.10;;;14.60;95.20;;;;;;5017777;28;20231;-90
2023/08/13 02:23:54;;;;;;;24.90;15.75;;;14.50;95.20;;;;;;5000094;28;20185;-90
2023/08/13 02:26:20;;;;;;;21.98;15.38;;;14.50;95.10;;;;;;5017511;28;20181;-90
2023/08/13 02:28:45;;;;;;;28.35;15.35;;;14.50;95.10;;;;;;5017253;28;20234;-90
2023/08/13 02:31:11;;;;;;;24.67;15.20;;;14.50;95.10;;;;;;5017436;28;20256;-90
2023/08/13 02:33:37;;;;;;;24.35;14.73;;;14.50;95.00;;;;;;5017302;28;20251;-90
2023/08/13 02:36:03;;;;;;;25.02;16.50;;;14.40;94.90;;;;;;5017730;28;20194;-90
2023/08/13 02:38:29;;;;;;;23.88;15.85;;;14.40;94.90;;;;;;5017432;28;20205;-90
2023/08/13 02:40:55;;;;;;;23.77;15.77;;;14.40;94.80;;;;;;5017309;28;20185;-91
2023/08/13 02:43:20;;;;;;;20.25;15.85;;;14.40;94.80;;;;;;5017036;28;20217;-90
2023/08/13 02:45:46;;;;;;;28.23;15.50;;;14.40;94.80;;;;;;4999742;28;20197;-91
2023/08/13 02:48:11;;;;;;;23.35;15.27;;;14.30;94.70;;;;;;5017320;28;20205;-90
2023/08/13 02:50:37;;;;;;;26.80;16.73;;;14.40;94.70;;;;;;5017007;28;20614;-90
2023/08/13 02:53:03;;;;;;;30.73;16.40;;;14.30;94.60;;;;;;5017054;28;20181;-90
2023/08/13 02:55:28;;;;;;;21.45;15.18;;;14.30;94.60;;;;;;5017016;28;20212;-90
2023/08/13 02:57:54;;;;;;;23.85;15.50;;;14.40;94.60;;;;;;5016786;28;20650;-90
2023/08/13 03:00:21;;;;;;;19.20;16.52;;;14.30;94.50;;;;;;4999332;28;20219;-90
2023/08/13 03:02:46;;;;;;;23.23;16.20;;;14.30;94.50;;;;;;5015604;28;20642;-90
2023/08/13 03:05:12;;;;;;;29.67;17.00;;;14.40;94.50;;;;;;5016420;28;20275;-90
2023/08/13 03:07:37;;;;;;;22.97;15.90;;;14.40;94.40;;;;;;5016816;28;20401;-90
2023/08/13 03:10:03;;;;;;;21.02;15.13;;;14.40;94.30;;;;;;5016086;28;20228;-90
2023/08/13 03:12:29;;;;;;;18.35;16.30;;;14.30;94.20;;;;;;5016714;28;20508;-91
2023/08/13 03:14:54;;;;;;;21.93;16.20;;;14.30;94.10;;;;;;5016592;28;20284;-90
2023/08/13 03:17:20;;;;;;;20.45;17.33;;;14.30;94.10;;;;;;5017277;28;20342;-90
2023/08/13 03:19:46;;;;;;;23.52;17.92;;;14.30;94.10;;;;;;5016663;28;20197;-91
2023/08/13 03:22:12;;;;;;;19.77;15.98;;;14.30;94.10;;;;;;5016148;28;20174;-90
2023/08/13 03:24:37;;;;;;;19.65;15.75;;;14.30;94.00;;;;;;5016577;28;20625;-90
2023/08/13 03:27:03;;;;;;;19.63;14.82;;;14.30;94.00;;;;;;5016291;28;20231;-90
2023/08/13 03:29:28;;;;;;;21.10;14.63;;;14.30;94.00;;;;;;5015881;28;20283;-90
2023/08/13 03:31:54;;;;;;;22.17;15.73;;;14.30;93.90;;;;;;5016350;28;20170;-91
2023/08/13 03:34:20;;;;;;;20.83;15.85;;;14.30;93.80;;;;;;5016031;28;20220;-90
2023/08/13 03:36:45;;;;;;;17.08;15.15;;;14.20;93.80;;;;;;5016144;28;20720;-90
2023/08/13 03:39:11;;;;;;;16.55;14.65;;;14.20;93.80;;;;;;5016455;28;20212;-90
2023/08/13 03:41:36;;;;;;;20.98;15.82;;;14.30;93.80;;;;;;5016226;28;20170;-90
2023/08/13 03:44:02;;;;;;;21.02;16.63;;;14.20;93.70;;;;;;5015980;28;20177;-90
2023/08/13 03:46:27;;;;;;;18.23;16.15;;;14.20;93.70;;;;;;5015686;28;20189;-90
2023/08/13 03:48:53;;;;;;;20.40;17.63;;;14.20;93.70;;;;;;5015477;28;20200;-90
2023/08/13 03:51:18;;;;;;;22.63;16.60;;;14.10;93.70;;;;;;5015517;28;20173;-90
2023/08/13 03:53:44;;;;;;;19.63;15.33;;;14.10;93.80;;;;;;5015592;28;20173;-90
2023/08/13 03:56:09;;;;;;;22.95;16.42;;;14.10;93.80;;;;;;5015627;28;20735;-91
2023/08/13 03:58:35;;;;;;;19.13;15.90;;;14.00;93.90;;;;;;5015605;28;20173;-90
2023/08/13 04:01:08;;;;;;;20.37;15.53;;;13.90;93.90;;;;;;5015555;28;20557;-90
2023/08/13 04:03:33;;;;;;;18.97;16.37;;;13.80;94.00;;;;;;5016088;28;20649;-90
2023/08/13 04:05:59;;;;;;;22.27;16.07;;;13.80;94.10;;;;;;5015222;28;20228;-90
2023/08/13 04:08:25;;;;;;;17.50;15.70;;;13.80;94.20;;;;;;5015562;28;20248;-90
2023/08/13 04:10:52;;;;;;;17.93;14.93;;;13.90;94.20;;;;;;4997848;28;20570;-90
2023/08/13 04:13:19;;;;;;;24.67;15.90;;;13.80;94.20;;;;;;5015385;28;20715;-90
2023/08/13 04:15:44;;;;;;;17.37;15.63;;;13.70;94.20;;;;;;5015747;28;20271;-90
2023/08/13 04:18:10;;;;;;;17.20;15.17;;;13.70;94.30;;;;;;5015454;28;20177;-90
2023/08/13 04:20:36;;;;;;;29.13;25.27;;;13.70;94.40;;;;;;5015904;28;20184;-90
2023/08/13 04:23:02;;;;;;;28.43;25.63;;;13.80;94.50;;;;;;5015677;28;20192;-90
2023/08/13 04:25:27;;;;;;;28.07;25.17;;;13.80;94.50;;;;;;5015605;28;20188;-90
2023/08/13 04:27:53;;;;;;;28.60;25.77;;;13.80;94.50;;;;;;5015179;28;20201;-90
2023/08/13 04:30:18;;;;;;;32.40;27.73;;;13.80;94.50;;;;;;5015737;28;20182;-90
2023/08/13 04:32:55;;;;;;;31.03;27.50;;;13.90;94.60;;;;;;5015245;28;20196;-90
2023/08/13 04:35:24;;;;;;;33.23;28.90;;;14.00;94.60;;;;;;5015894;28;20271;-90
2023/08/13 04:37:50;;;;;;;31.33;26.90;;;14.10;94.60;;;;;;5015520;28;20181;-90
2023/08/13 04:40:16;;;;;;;28.00;25.23;;;14.20;94.50;;;;;;5015235;28;20198;-90
2023/08/13 04:42:42;;;;;;;28.33;25.20;;;14.20;94.50;;;;;;5015217;28;20231;-90
2023/08/13 04:45:09;;;;;;;28.43;25.57;;;14.20;94.40;;;;;;5014963;28;20193;-89
2023/08/13 04:47:34;;;;;;;30.23;24.90;;;14.30;94.30;;;;;;5014907;28;20645;-90
2023/08/13 04:50:00;;;;;;;26.37;23.63;;;14.30;94.20;;;;;;4997292;28;20316;-90
2023/08/13 04:52:25;;;;;;;32.67;25.25;;;14.30;94.20;;;;;;5015058;28;20205;-90
2023/08/13 04:54:51;;;;;;;30.00;24.27;;;14.30;94.20;;;;;;5014963;28;20198;-90
2023/08/13 04:57:17;;;;;;;29.80;25.27;;;14.40;94.20;;;;;;5015046;28;20185;-90
2023/08/13 04:59:42;;;;;;;28.77;24.92;;;14.50;94.20;;;;;;5014857;28;20178;-90
2023/08/13 05:02:08;;;;;;;28.75;26.33;;;14.50;94.10;;;;;;4998068;28;20264;-90
2023/08/13 05:04:33;;;;;;;30.85;25.85;;;14.50;94.10;;;;;;5014536;28;20189;-90
2023/08/13 05:06:59;;;;;;;30.10;26.85;;;14.60;94.10;;;;;;5014689;28;20578;-90
2023/08/13 05:09:24;;;;;;;30.15;26.60;;;14.70;94.00;;;;;;5014975;28;20705;-89
2023/08/13 05:11:50;;;;;;;28.10;25.45;;;14.70;94.00;;;;;;5015305;28;20223;-90
2023/08/13 05:14:15;;;;;;;35.38;25.92;;;14.80;94.00;;;;;;5014796;28;20248;-91
2023/08/13 05:16:41;;;;;;;32.53;27.93;;;14.90;94.00;;;;;;5015473;28;20197;-90
2023/08/13 05:19:06;;;;;;;32.13;27.15;;;14.90;94.00;;;;;;5014735;28;20268;-89
2023/08/13 05:21:32;;;;;;;38.33;27.08;;;15.00;94.10;;;;;;5015225;28;20185;-90
2023/08/13 05:23:57;;;;;;;29.48;27.13;;;15.00;94.10;;;;;;5015136;28;20181;-90
2023/08/13 05:26:23;;;;;;;27.10;24.48;;;15.10;94.00;;;;;;5018809;28;20180;-90
2023/08/13 05:28:49;;;;;;;28.67;25.90;;;15.20;93.90;;;;;;5018193;28;20207;-90
2023/08/13 05:31:14;;;;;;;34.58;26.98;;;15.20;94.00;;;;;;5019040;28;20181;-91
2023/08/13 05:33:40;;;;;;;46.78;42.28;;;15.30;93.90;;;;;;5018406;28;20193;-90
2023/08/13 05:36:05;;;;;;;48.33;44.13;;;15.30;94.00;;;;;;5018339;28;20197;-90
2023/08/13 05:38:32;;;;;;;39.25;35.70;;;15.40;94.10;;;;;;5018247;28;20182;-91
2023/08/13 05:40:57;;;;;;;29.42;26.33;;;15.50;94.10;;;;;;5018591;28;20543;-90
2023/08/13 05:43:23;;;;;;;30.08;26.70;;;15.50;94.10;;;;;;5018200;28;20197;-90
2023/08/13 05:45:48;;;;;;;47.25;43.33;;;15.60;94.00;;;;;;5018528;28;20200;-90
2023/08/13 05:48:14;;;;;;;48.25;44.28;;;15.60;94.00;;;;;;5017456;28;20209;-90
2023/08/13 05:50:39;;;;;;;50.58;46.40;;;15.70;93.90;;;;;;5018740;28;20204;-90
2023/08/13 05:53:05;;;;;;;30.35;27.58;;;15.60;93.70;;;;;;5017796;28;20177;-91
2023/08/13 05:55:31;;;;;;;29.40;26.75;;;15.70;93.70;;;;;;5018070;28;20244;-90
2023/08/13 05:57:56;;;;;;;46.83;42.53;;;15.80;93.50;;;;;;5018674;28;20169;-90
2023/08/13 06:00:24;;;;;;;46.78;42.97;;;15.80;93.40;;;;;;5000339;28;20185;-91
2023/08/13 06:02:49;;;;;;;29.73;26.75;;;15.90;93.30;;;;;;5017866;28;20205;-90
2023/08/13 06:05:15;;;;;;;27.85;24.92;;;16.00;93.20;;;;;;5017413;28;20586;-90
2023/08/13 06:07:40;;;;;;;28.55;25.70;;;16.00;93.10;;;;;;5018411;28;20292;-90
2023/08/13 06:10:06;;;;;;;29.20;26.00;;;16.10;92.70;;;;;;5000615;28;20268;-91
2023/08/13 06:12:32;;;;;;;25.60;23.23;;;16.20;92.60;;;;;;5018132;28;20173;-90
2023/08/13 06:14:58;;;;;;;26.00;23.50;;;16.30;92.70;;;;;;5017741;28;20193;-90
2023/08/13 06:17:24;;;;;;;28.10;25.20;;;16.30;92.50;;;;;;5018110;28;20619;-90
2023/08/13 06:19:49;;;;;;;29.92;27.27;;;16.40;92.50;;;;;;4999914;28;20181;-90
2023/08/13 06:22:15;;;;;;;28.88;26.13;;;16.50;92.30;;;;;;5017920;28;20173;-90
2023/08/13 06:24:40;;;;;;;28.75;26.08;;;16.50;92.00;;;;;;5017463;28;20299;-90
2023/08/13 06:27:06;;;;;;;30.77;27.52;;;16.60;92.00;;;;;;5018351;28;20177;-90
2023/08/13 06:29:32;;;;;;;27.38;24.80;;;16.70;91.80;;;;;;5017577;28;20211;-90
2023/08/13 06:31:57;;;;;;;33.05;24.90;;;16.70;91.70;;;;;;5017690;28;20169;-90
2023/08/13 06:34:23;;;;;;;28.63;25.55;;;16.70;91.50;;;;;;5017354;28;20221;-90
2023/08/13 06:36:48;;;;;;;27.45;24.75;;;16.70;91.40;;;;;;5016887;28;20169;-90
2023/08/13 06:39:14;;;;;;;27.80;24.90;;;16.80;91.00;;;;;;5017699;28;20179;-90
2023/08/13 06:41:39;;;;;;;26.45;24.08;;;17.00;91.40;;;;;;5018234;28;20178;-90
2023/08/13 06:44:06;;;;;;;31.58;24.85;;;17.10;91.10;;;;;;5017605;28;20261;-90
2023/08/13 06:46:31;;;;;;;27.67;23.73;;;17.20;90.70;;;;;;5000170;28;20188;-91
2023/08/13 06:48:57;;;;;;;32.42;26.88;;;17.30;91.00;;;;;;4999805;28;20201;-90
2023/08/13 06:51:23;;;;;;;28.60;25.45;;;17.30;90.40;;;;;;5016518;28;20165;-90
2023/08/13 06:53:48;;;;;;;29.17;26.40;;;17.40;90.70;;;;;;5016014;28;20247;-91
2023/08/13 06:56:14;;;;;;;28.80;26.05;;;17.30;90.40;;;;;;5016042;28;20544;-91
2023/08/13 06:58:39;;;;;;;27.67;25.05;;;17.40;90.40;;;;;;5016921;28;20352;-91
2023/08/13 07:01:05;;;;;;;28.92;26.08;;;17.40;90.40;;;;;;5001453;28;20197;-90
2023/08/13 07:03:31;;;;;;;33.38;26.65;;;17.50;90.60;;;;;;5018337;28;20681;-90
2023/08/13 07:05:56;;;;;;;29.88;26.67;;;17.50;90.30;;;;;;5020713;28;20193;-91
2023/08/13 07:08:23;;;;;;;32.72;26.25;;;17.60;90.10;;;;;;5018436;28;20201;-91
2023/08/13 07:10:49;;;;;;;28.73;25.80;;;17.70;90.30;;;;;;5017644;28;20164;-90
2023/08/13 07:13:15;;;;;;;29.02;26.50;;;17.80;89.90;;;;;;5001586;28;20188;-90
2023/08/13 07:15:40;;;;;;;32.03;28.30;;;17.80;89.20;;;;;;4999140;28;20619;-89
2023/08/13 07:18:06;;;;;;;29.52;26.83;;;17.90;89.50;;;;;;5020855;28;20177;-91
2023/08/13 07:20:31;;;;;;;28.23;25.55;;;18.00;89.20;;;;;;5019283;28;20180;-89
2023/08/13 07:22:58;;;;;;;33.85;27.33;;;17.90;88.70;;;;;;5017065;28;20173;-90
2023/08/13 07:25:24;;;;;;;31.63;28.52;;;18.10;89.10;;;;;;5017014;28;20220;-89
2023/08/13 07:27:50;;;;;;;28.73;25.92;;;18.20;89.40;;;;;;4999630;28;20629;-90
2023/08/13 07:30:16;;;;;;;30.33;27.73;;;18.20;89.40;;;;;;5017478;28;20181;-91
2023/08/13 07:32:42;;;;;;;29.67;26.48;;;18.20;88.10;;;;;;5017509;28;20216;-90
2023/08/13 07:35:08;;;;;;;28.73;25.90;;;18.40;88.70;;;;;;5017392;28;20196;-90
2023/08/13 07:37:34;;;;;;;28.35;25.63;;;18.50;88.30;;;;;;5017039;28;20169;-90
2023/08/13 07:40:00;;;;;;;29.90;26.77;;;18.70;88.60;;;;;;5016158;28;20240;-90
2023/08/13 07:42:25;;;;;;;35.58;26.55;;;18.60;87.50;;;;;;5018164;28;20169;-90
2023/08/13 07:44:51;;;;;;;29.63;26.58;;;18.70;87.80;;;;;;4999587;28;20203;-90
2023/08/13 07:47:19;;;;;;;30.42;27.42;;;18.80;88.20;;;;;;5017636;28;20169;-89
2023/08/13 07:49:44;;;;;;;32.13;28.27;;;18.80;87.60;;;;;;5018304;28;20719;-90
2023/08/13 07:52:10;;;;;;;30.02;26.88;;;18.80;87.40;;;;;;5017913;28;20177;-89
2023/08/13 07:54:36;;;;;;;31.08;27.75;;;18.80;87.20;;;;;;5017411;28;20189;-90
2023/08/13 07:57:05;;;;;;;47.65;43.58;;;18.80;86.90;;;;;;5018427;28;20200;-88
2023/08/13 07:59:30;;;;;;;45.10;40.70;;;18.90;87.40;;;;;;4999548;28;20583;-90
2023/08/13 08:01:56;;;;;;;38.83;34.55;;;19.00;87.60;;;;;;5016579;28;20185;-90
2023/08/13 08:04:22;;;;;;;29.42;25.60;;;19.10;86.70;;;;;;5016626;28;20216;-89
2023/08/13 08:06:48;;;;;;;29.35;26.45;;;19.00;86.30;;;;;;5018113;28;20231;-90
2023/08/13 08:09:13;;;;;;;34.05;25.80;;;19.00;86.60;;;;;;4999850;28;20232;-91
2023/08/13 08:11:39;;;;;;;32.00;27.30;;;19.00;85.80;;;;;;5017575;28;20196;-90
2023/08/13 08:14:04;;;;;;;49.03;29.63;;;19.00;85.90;;;;;;5018102;28;20173;-90
2023/08/13 08:16:30;;;;;;;28.15;25.40;;;19.10;86.00;;;;;;5016137;28;20172;-90
2023/08/13 08:18:55;;;;;;;27.83;24.23;;;19.10;85.70;;;;;;5017449;28;20257;-90
2023/08/13 08:21:21;;;;;;;28.20;24.63;;;19.30;86.00;;;;;;5017953;28;20240;-91
2023/08/13 08:23:46;;;;;;;43.83;40.15;;;19.40;86.30;;;;;;5017057;28;20200;-90
2023/08/13 08:26:12;;;;;;;41.55;38.13;;;19.30;84.20;;;;;;5017810;28;20256;-90
2023/08/13 08:28:37;;;;;;;41.35;37.90;;;19.30;84.00;;;;;;5016906;28;20194;-90
2023/08/13 08:31:03;;;;;;;26.48;23.77;;;19.50;83.60;;;;;;5018325;28;20176;-91
2023/08/13 08:33:28;;;;;;;27.30;23.17;;;19.40;83.80;;;;;;5017711;28;20247;-89
2023/08/13 08:35:54;;;;;;;27.50;24.20;;;19.30;83.20;;;;;;5016665;28;20583;-88
2023/08/13 08:38:20;;;;;;;25.65;23.25;;;19.10;83.70;;;;;;4998153;28;20174;-87
2023/08/13 08:40:47;;;;;;;26.20;22.90;;;19.20;84.40;;;;;;5016936;28;20171;-88
2023/08/13 08:43:13;;;;;;;27.50;23.38;;;19.30;84.30;;;;;;5015599;28;20176;-89
2023/08/13 08:45:40;;;;;;;32.10;24.13;;;19.50;84.30;;;;;;5013609;28;20201;-89
2023/08/13 08:48:11;;;;;;;23.10;20.77;;;19.60;83.90;;;;;;5014999;28;20627;-88
2023/08/13 08:50:37;;;;;;;22.10;19.95;;;19.70;82.90;;;;;;5015591;28;20197;-88
2023/08/13 08:53:03;;;;;;;21.35;19.10;;;19.90;83.10;;;;;;4999011;28;20209;-89
2023/08/13 08:55:30;;;;;;;20.38;18.33;;;19.80;82.10;;;;;;5017433;28;20185;-89
2023/08/13 08:57:55;;;;;;;22.38;19.60;;;19.90;81.90;;;;;;5017831;28;20184;-89
2023/08/13 09:00:21;;;;;;;21.45;19.27;;;19.90;82.00;;;;;;5002212;28;20177;-89
2023/08/13 09:02:47;;;;;;;22.10;19.02;;;20.10;81.80;;;;;;5021486;28;20177;-89
2023/08/13 09:05:15;;;;;;;21.50;19.50;;;19.90;81.60;;;;;;5020009;28;20291;-89
2023/08/13 09:07:47;;;;;;;21.85;19.50;;;20.10;80.60;;;;;;5020394;28;20593;-88
2023/08/13 09:10:12;;;;;;;20.70;18.90;;;20.30;80.60;;;;;;5018616;28;20519;-90
2023/08/13 09:12:40;;;;;;;21.35;19.10;;;20.30;81.10;;;;;;5019565;28;20176;-88
2023/08/13 09:15:08;;;;;;;22.30;19.15;;;20.40;81.00;;;;;;5001282;28;20204;-89
2023/08/13 09:17:33;;;;;;;19.90;17.88;;;20.40;80.00;;;;;;5018844;28;20645;-90
2023/08/13 09:20:01;;;;;;;20.88;18.70;;;20.60;81.00;;;;;;5018391;28;20192;-89
2023/08/13 09:22:32;;;;;;;20.75;19.02;;;20.60;79.20;;;;;;5020101;28;20170;-90
2023/08/13 09:25:02;;;;;;;20.67;18.58;;;20.80;77.60;;;;;;5019189;28;20285;-89
2023/08/13 09:27:27;;;;;;;19.30;17.65;;;20.90;78.20;;;;;;5001509;28;20181;-89
2023/08/13 09:29:53;;;;;;;21.17;19.20;;;21.10;77.80;;;;;;5001198;28;20725;-89
2023/08/13 09:32:20;;;;;;;21.10;19.17;;;20.90;77.40;;;;;;5019526;28;20178;-91
2023/08/13 09:34:45;;;;;;;32.40;29.65;;;21.20;78.30;;;;;;5018830;28;20208;-92
2023/08/13 09:37:11;;;;;;;34.67;31.92;;;21.10;78.40;;;;;;5018426;28;20189;-89
2023/08/13 09:39:36;;;;;;;36.00;32.38;;;20.90;77.20;;;;;;5021627;28;20182;-90
2023/08/13 09:42:05;;;;;;;20.33;18.30;;;20.80;78.70;;;;;;5009778;28;20165;-90
2023/08/13 09:44:31;;;;;;;18.25;16.63;;;20.90;79.30;;;;;;5024857;28;20189;-92
2023/08/13 09:47:06;;;;;;;21.02;19.33;;;21.50;79.10;;;;;;5019303;28;20208;-91
2023/08/13 09:49:34;;;;;;;20.52;18.40;;;21.10;76.50;;;;;;5000347;28;20212;-91
2023/08/13 09:52:01;;;;;;;21.70;19.48;;;20.80;77.00;;;;;;5017397;28;20208;-92
2023/08/13 09:54:40;;;;;;;20.08;18.38;;;20.70;76.80;;;;;;5017320;28;20685;-92
2023/08/13 09:57:09;;;;;;;22.23;18.48;;;20.70;77.60;;;;;;5018275;28;20256;-92
2023/08/13 09:59:36;;;;;;;21.17;19.00;;;20.80;77.20;;;;;;5018365;28;20571;-92
2023/08/13 10:02:06;;;;;;;20.25;18.17;;;20.60;77.50;;;;;;5017923;28;20200;-92
2023/08/13 10:04:33;;;;;;;19.35;17.45;;;20.50;78.00;;;;;;4999720;28;20208;-91
2023/08/13 10:06:59;;;;;;;18.38;16.65;;;20.50;78.20;;;;;;5017495;28;20656;-91
2023/08/13 10:09:26;;;;;;;19.95;17.88;;;20.60;78.40;;;;;;5017546;28;20193;-92
2023/08/13 10:11:52;;;;;;;20.45;18.42;;;20.70;79.00;;;;;;5017283;28;20173;-92
2023/08/13 10:14:18;;;;;;;19.50;17.70;;;20.80;77.40;;;;;;5017996;28;20185;-92
2023/08/13 10:16:45;;;;;;;21.27;19.27;;;21.20;78.00;;;;;;5017156;28;20630;-92
2023/08/13 10:19:11;;;;;;;21.75;19.48;;;21.40;74.60;;;;;;4999117;28;20653;-92
2023/08/13 10:21:38;;;;;;;20.13;18.23;;;21.30;74.80;;;;;;5017030;28;20181;-91
2023/08/13 10:24:05;;;;;;;19.25;17.58;;;21.60;74.30;;;;;;5017004;28;20180;-92
2023/08/13 10:26:32;;;;;;;19.52;17.58;;;21.90;74.20;;;;;;5016737;28;20267;-91
2023/08/13 10:28:57;;;;;;;24.40;19.83;;;21.70;74.00;;;;;;5016888;28;20232;-92
2023/08/13 10:31:23;;;;;;;20.70;18.88;;;21.80;73.30;;;;;;5016678;28;20166;-91
2023/08/13 10:34:00;;;;;;;21.50;19.50;;;21.60;73.20;;;;;;5016483;28;20185;-91
2023/08/13 10:36:51;;;;;;;20.98;19.10;;;21.40;73.90;;;;;;5016544;28;20157;-92
2023/08/13 10:39:37;;;;;;;21.17;19.10;;;21.40;73.60;;;;;;5016717;28;20207;-92
2023/08/13 10:42:04;;;;;;;20.23;18.20;;;21.30;72.40;;;;;;4999240;28;20185;-91
2023/08/13 10:44:32;;;;;;;19.63;17.80;;;21.40;75.10;;;;;;5016607;28;20198;-92
2023/08/13 10:46:58;;;;;;;19.73;18.23;;;21.80;74.60;;;;;;5016428;28;20177;-92
2023/08/13 10:49:27;;;;;;;20.63;18.88;;;21.70;73.30;;;;;;5016273;28;20200;-91
2023/08/13 10:51:53;;;;;;;20.02;18.48;;;21.50;73.20;;;;;;5016322;28;20300;-91
2023/08/13 10:54:19;;;;;;;20.95;18.92;;;21.60;73.10;;;;;;5016463;28;20185;-92
2023/08/13 10:57:05;;;;;;;21.42;17.83;;;21.50;73.90;;;;;;5016739;28;20193;-92
2023/08/13 10:59:34;;;;;;;19.70;18.00;;;21.60;73.70;;;;;;4998891;28;20189;-91
2023/08/13 11:02:12;;;;;;;20.17;18.58;;;21.50;74.10;;;;;;5015907;28;20201;-92
2023/08/13 11:04:41;;;;;;;19.23;17.63;;;21.40;72.70;;;;;;5016123;28;20189;-92
2023/08/13 11:07:08;;;;;;;20.00;18.20;;;21.40;74.80;;;;;;5015790;28;20247;-91
2023/08/13 11:09:33;;;;;;;20.77;18.83;;;21.30;74.40;;;;;;5016915;28;20193;-91
2023/08/13 11:11:59;;;;;;;20.17;18.20;;;21.50;73.40;;;;;;5016169;28;20172;-92
2023/08/13 11:14:25;;;;;;;19.40;17.88;;;21.40;74.30;;;;;;5016503;28;20225;-92
2023/08/13 11:16:52;;;;;;;18.48;16.98;;;21.70;74.10;;;;;;5016198;28;20173;-92
2023/08/13 11:19:17;;;;;;;19.30;17.77;;;21.80;74.40;;;;;;4998367;28;20178;-92
2023/08/13 11:21:43;;;;;;;20.83;18.67;;;21.90;73.00;;;;;;5015705;28;20173;-92
2023/08/13 11:24:10;;;;;;;19.73;17.70;;;22.00;72.20;;;;;;5015811;28;20610;-91
2023/08/13 11:26:35;;;;;;;19.75;17.95;;;21.80;72.90;;;;;;5016261;28;20196;-91
2023/08/13 11:29:01;;;;;;;21.20;19.23;;;21.70;72.20;;;;;;5001355;28;20213;-92
2023/08/13 11:31:26;;;;;;;19.42;17.75;;;21.80;72.40;;;;;;5015725;28;20541;-92
2023/08/13 11:33:52;;;;;;;33.60;30.63;;;22.00;73.00;;;;;;5015582;28;20225;-92
2023/08/13 11:36:18;;;;;;;35.83;32.90;;;22.30;72.00;;;;;;5015784;28;20218;-93
2023/08/13 11:38:44;;;;;;;36.33;33.70;;;22.60;71.10;;;;;;5016358;28;20174;-91
2023/08/13 11:41:11;;;;;;;20.25;18.50;;;22.50;70.30;;;;;;5015558;28;20173;-92
2023/08/13 11:43:37;;;;;;;20.90;18.85;;;22.10;70.70;;;;;;5014891;28;20178;-93
2023/08/13 11:46:03;;;;;;;19.90;18.30;;;22.00;71.10;;;;;;5015203;28;20551;-92
2023/08/13 11:48:31;;;;;;;32.80;30.50;;;22.20;70.80;;;;;;5015321;28;20251;-92
2023/08/13 11:51:13;;;;;;;34.72;32.03;;;22.20;69.40;;;;;;5015534;28;20188;-92
2023/08/13 11:53:44;;;;;;;19.50;17.90;;;21.80;70.70;;;;;;5014958;28;20154;-92
2023/08/13 11:56:14;;;;;;;19.55;17.80;;;21.80;71.80;;;;;;5015200;28;20244;-92
2023/08/13 11:58:40;;;;;;;18.90;17.35;;;21.70;71.70;;;;;;5015306;28;20642;-92
2023/08/13 12:01:06;;;;;;;19.52;17.98;;;21.80;72.20;;;;;;5015154;28;20204;-92
2023/08/13 12:03:35;;;;;;;31.55;29.23;;;21.80;71.80;;;;;;5015303;28;20181;-93
2023/08/13 12:06:01;;;;;;;31.63;29.23;;;21.90;71.10;;;;;;5015561;28;20285;-93
2023/08/13 12:08:30;;;;;;;34.13;31.63;;;21.90;70.90;;;;;;5015319;28;20288;-92
2023/08/13 12:10:57;;;;;;;20.48;18.70;;;22.70;70.30;;;;;;5014565;28;20180;-94
2023/08/13 12:13:23;;;;;;;21.23;19.25;;;23.00;68.50;;;;;;4997448;28;20622;-93
2023/08/13 12:15:49;;;;;;;20.92;19.45;;;22.70;67.30;;;;;;5014872;28;20213;-92
2023/08/13 12:18:15;;;;;;;19.48;18.08;;;22.40;66.60;;;;;;5014404;28;20180;-93
2023/08/13 12:20:40;;;;;;;20.80;18.95;;;22.50;67.10;;;;;;5015059;28;20216;-93
2023/08/13 12:23:06;;;;;;;19.85;18.27;;;22.30;67.80;;;;;;5015197;28;20203;-92
2023/08/13 12:25:31;;;;;;;19.83;18.23;;;22.30;69.70;;;;;;5014370;28;20292;-92